METAR Data
IDs: Format: Raw Decoded Include TAF

Data at: 1811 UTC 16 Oct 2021

LTFH 161750Z VRB02KT 9999 FEW036 BKN100 16/14 Q1014 NOSIG